sensor_id;sensor_type;location;lat;lon;timestamp;P1;durP1;ratioP1;P2;durP2;ratioP2
78752;SDS011;68072;51.688;7.842;2023-05-23T00:01:34;14.35;;;9.30;;
78752;SDS011;68072;51.688;7.842;2023-05-23T00:04:03;14.98;;;9.57;;
78752;SDS011;68072;51.688;7.842;2023-05-23T00:06:28;17.92;;;10.15;;
78752;SDS011;68072;51.688;7.842;2023-05-23T00:08:54;22.38;;;9.27;;
78752;SDS011;68072;51.688;7.842;2023-05-23T00:11:20;18.25;;;9.70;;
78752;SDS011;68072;51.688;7.842;2023-05-23T00:13:50;18.23;;;9.57;;
78752;SDS011;68072;51.688;7.842;2023-05-23T00:16:16;17.27;;;10.68;;
78752;SDS011;68072;51.688;7.842;2023-05-23T00:18:41;19.02;;;10.27;;
78752;SDS011;68072;51.688;7.842;2023-05-23T00:21:09;17.92;;;10.85;;
78752;SDS011;68072;51.688;7.842;2023-05-23T00:23:35;18.13;;;10.35;;
78752;SDS011;68072;51.688;7.842;2023-05-23T00:26:00;17.35;;;10.40;;
78752;SDS011;68072;51.688;7.842;2023-05-23T00:28:26;15.50;;;10.15;;
78752;SDS011;68072;51.688;7.842;2023-05-23T00:30:51;15.13;;;9.73;;
78752;SDS011;68072;51.688;7.842;2023-05-23T00:33:17;18.05;;;9.80;;
78752;SDS011;68072;51.688;7.842;2023-05-23T00:35:46;15.30;;;9.27;;
78752;SDS011;68072;51.688;7.842;2023-05-23T00:38:12;16.13;;;9.43;;
78752;SDS011;68072;51.688;7.842;2023-05-23T00:40:38;15.80;;;9.60;;
78752;SDS011;68072;51.688;7.842;2023-05-23T00:43:04;17.15;;;9.85;;
78752;SDS011;68072;51.688;7.842;2023-05-23T00:45:29;18.38;;;10.55;;
78752;SDS011;68072;51.688;7.842;2023-05-23T00:47:55;14.98;;;9.55;;
78752;SDS011;68072;51.688;7.842;2023-05-23T00:50:23;15.80;;;10.05;;
78752;SDS011;68072;51.688;7.842;2023-05-23T00:52:48;13.40;;;9.35;;
78752;SDS011;68072;51.688;7.842;2023-05-23T00:55:14;16.63;;;9.35;;
78752;SDS011;68072;51.688;7.842;2023-05-23T00:57:39;15.40;;;9.52;;
78752;SDS011;68072;51.688;7.842;2023-05-23T01:00:11;14.15;;;9.65;;
78752;SDS011;68072;51.688;7.842;2023-05-23T01:02:42;16.55;;;9.20;;
78752;SDS011;68072;51.688;7.842;2023-05-23T01:05:12;12.68;;;8.52;;
78752;SDS011;68072;51.688;7.842;2023-05-23T01:07:45;12.18;;;7.95;;
78752;SDS011;68072;51.688;7.842;2023-05-23T01:10:15;13.10;;;8.13;;
78752;SDS011;68072;51.688;7.842;2023-05-23T01:13:45;12.77;;;8.77;;
78752;SDS011;68072;51.688;7.842;2023-05-23T01:15:49;12.52;;;8.13;;
78752;SDS011;68072;51.688;7.842;2023-05-23T01:18:26;10.20;;;6.97;;
78752;SDS011;68072;51.688;7.842;2023-05-23T01:20:58;11.63;;;7.65;;
78752;SDS011;68072;51.688;7.842;2023-05-23T01:23:45;14.20;;;8.15;;
78752;SDS011;68072;51.688;7.842;2023-05-23T01:29:26;9.82;;;6.80;;
78752;SDS011;68072;51.688;7.842;2023-05-23T01:31:54;10.75;;;7.55;;
78752;SDS011;68072;51.688;7.842;2023-05-23T01:34:22;11.50;;;7.88;;
78752;SDS011;68072;51.688;7.842;2023-05-23T01:36:57;11.23;;;7.30;;
78752;SDS011;68072;51.688;7.842;2023-05-23T01:39:23;9.00;;;7.15;;
78752;SDS011;68072;51.688;7.842;2023-05-23T01:41:49;9.35;;;7.38;;
78752;SDS011;68072;51.688;7.842;2023-05-23T01:44:15;12.18;;;6.82;;
78752;SDS011;68072;51.688;7.842;2023-05-23T01:46:41;10.43;;;6.60;;
78752;SDS011;68072;51.688;7.842;2023-05-23T01:49:08;7.95;;;6.22;;
78752;SDS011;68072;51.688;7.842;2023-05-23T01:51:36;12.55;;;7.20;;
78752;SDS011;68072;51.688;7.842;2023-05-23T01:54:05;10.25;;;6.57;;
78752;SDS011;68072;51.688;7.842;2023-05-23T01:56:36;12.00;;;6.60;;
78752;SDS011;68072;51.688;7.842;2023-05-23T01:59:01;9.68;;;6.20;;
78752;SDS011;68072;51.688;7.842;2023-05-23T02:01:27;9.82;;;6.93;;
78752;SDS011;68072;51.688;7.842;2023-05-23T02:03:53;9.43;;;6.53;;
78752;SDS011;68072;51.688;7.842;2023-05-23T02:06:19;10.57;;;7.18;;
78752;SDS011;68072;51.688;7.842;2023-05-23T02:08:45;13.00;;;7.50;;
78752;SDS011;68072;51.688;7.842;2023-05-23T02:11:10;10.38;;;7.32;;
78752;SDS011;68072;51.688;7.842;2023-05-23T02:13:36;11.60;;;6.43;;
78752;SDS011;68072;51.688;7.842;2023-05-23T02:16:01;10.45;;;7.00;;
78752;SDS011;68072;51.688;7.842;2023-05-23T02:20:54;11.38;;;6.93;;
78752;SDS011;68072;51.688;7.842;2023-05-23T02:23:22;9.07;;;6.93;;
78752;SDS011;68072;51.688;7.842;2023-05-23T02:25:49;10.75;;;6.85;;
78752;SDS011;68072;51.688;7.842;2023-05-23T02:30:41;10.55;;;6.72;;
78752;SDS011;68072;51.688;7.842;2023-05-23T02:33:07;14.00;;;7.88;;
78752;SDS011;68072;51.688;7.842;2023-05-23T02:35:32;12.52;;;7.70;;
78752;SDS011;68072;51.688;7.842;2023-05-23T02:37:58;11.15;;;7.07;;
78752;SDS011;68072;51.688;7.842;2023-05-23T02:40:24;11.82;;;7.88;;
78752;SDS011;68072;51.688;7.842;2023-05-23T02:42:50;13.80;;;7.90;;
78752;SDS011;68072;51.688;7.842;2023-05-23T02:45:16;12.35;;;7.97;;
78752;SDS011;68072;51.688;7.842;2023-05-23T02:47:42;13.40;;;7.88;;
78752;SDS011;68072;51.688;7.842;2023-05-23T02:50:12;11.70;;;7.13;;
78752;SDS011;68072;51.688;7.842;2023-05-23T02:52:38;10.10;;;7.18;;
78752;SDS011;68072;51.688;7.842;2023-05-23T02:55:03;12.02;;;7.57;;
78752;SDS011;68072;51.688;7.842;2023-05-23T02:57:29;12.05;;;7.95;;
78752;SDS011;68072;51.688;7.842;2023-05-23T02:59:55;14.77;;;8.88;;
78752;SDS011;68072;51.688;7.842;2023-05-23T03:02:22;14.18;;;9.52;;
78752;SDS011;68072;51.688;7.842;2023-05-23T03:04:47;18.27;;;10.57;;
78752;SDS011;68072;51.688;7.842;2023-05-23T03:07:13;17.67;;;10.48;;
78752;SDS011;68072;51.688;7.842;2023-05-23T03:09:39;16.27;;;9.82;;
78752;SDS011;68072;51.688;7.842;2023-05-23T03:12:05;16.95;;;10.93;;
78752;SDS011;68072;51.688;7.842;2023-05-23T03:14:31;15.93;;;10.85;;
78752;SDS011;68072;51.688;7.842;2023-05-23T03:16:57;18.85;;;13.68;;
78752;SDS011;68072;51.688;7.842;2023-05-23T03:19:22;17.42;;;11.48;;
78752;SDS011;68072;51.688;7.842;2023-05-23T03:21:48;17.92;;;12.25;;
78752;SDS011;68072;51.688;7.842;2023-05-23T03:24:14;20.92;;;12.18;;
78752;SDS011;68072;51.688;7.842;2023-05-23T03:26:40;21.50;;;11.95;;
78752;SDS011;68072;51.688;7.842;2023-05-23T03:29:05;17.98;;;10.68;;
78752;SDS011;68072;51.688;7.842;2023-05-23T03:31:31;14.45;;;10.93;;
78752;SDS011;68072;51.688;7.842;2023-05-23T03:33:56;18.23;;;9.32;;
78752;SDS011;68072;51.688;7.842;2023-05-23T03:36:22;17.15;;;10.23;;
78752;SDS011;68072;51.688;7.842;2023-05-23T03:38:52;21.13;;;11.85;;
78752;SDS011;68072;51.688;7.842;2023-05-23T03:41:21;22.40;;;12.40;;
78752;SDS011;68072;51.688;7.842;2023-05-23T03:43:48;24.33;;;13.73;;
78752;SDS011;68072;51.688;7.842;2023-05-23T03:46:14;24.40;;;13.82;;
78752;SDS011;68072;51.688;7.842;2023-05-23T03:48:39;26.42;;;14.00;;
78752;SDS011;68072;51.688;7.842;2023-05-23T03:51:05;24.00;;;13.60;;
78752;SDS011;68072;51.688;7.842;2023-05-23T03:53:30;32.88;;;14.93;;
78752;SDS011;68072;51.688;7.842;2023-05-23T03:55:56;31.30;;;13.73;;
78752;SDS011;68072;51.688;7.842;2023-05-23T03:58:24;24.73;;;15.30;;
78752;SDS011;68072;51.688;7.842;2023-05-23T04:00:50;28.75;;;15.18;;
78752;SDS011;68072;51.688;7.842;2023-05-23T04:03:17;31.10;;;16.88;;
78752;SDS011;68072;51.688;7.842;2023-05-23T04:05:42;20.95;;;13.77;;
78752;SDS011;68072;51.688;7.842;2023-05-23T04:08:08;23.85;;;12.90;;
78752;SDS011;68072;51.688;7.842;2023-05-23T04:10:38;23.52;;;13.70;;
78752;SDS011;68072;51.688;7.842;2023-05-23T04:13:17;25.08;;;14.50;;
78752;SDS011;68072;51.688;7.842;2023-05-23T04:15:55;25.65;;;14.30;;
78752;SDS011;68072;51.688;7.842;2023-05-23T04:18:31;21.70;;;12.50;;
78752;SDS011;68072;51.688;7.842;2023-05-23T04:21:12;20.88;;;11.80;;
78752;SDS011;68072;51.688;7.842;2023-05-23T04:23:41;19.25;;;10.77;;
78752;SDS011;68072;51.688;7.842;2023-05-23T04:26:12;17.83;;;11.18;;
78752;SDS011;68072;51.688;7.842;2023-05-23T04:28:38;18.15;;;11.32;;
78752;SDS011;68072;51.688;7.842;2023-05-23T04:31:19;16.25;;;10.15;;
78752;SDS011;68072;51.688;7.842;2023-05-23T04:33:52;15.18;;;9.93;;
78752;SDS011;68072;51.688;7.842;2023-05-23T04:36:19;16.27;;;9.35;;
78752;SDS011;68072;51.688;7.842;2023-05-23T04:38:51;13.80;;;9.27;;
78752;SDS011;68072;51.688;7.842;2023-05-23T04:41:17;14.38;;;9.25;;
78752;SDS011;68072;51.688;7.842;2023-05-23T04:43:59;15.82;;;9.40;;
78752;SDS011;68072;51.688;7.842;2023-05-23T04:48:52;15.88;;;9.00;;
78752;SDS011;68072;51.688;7.842;2023-05-23T04:51:19;14.18;;;9.43;;
78752;SDS011;68072;51.688;7.842;2023-05-23T04:53:48;17.33;;;8.65;;
78752;SDS011;68072;51.688;7.842;2023-05-23T04:56:14;16.38;;;8.70;;
78752;SDS011;68072;51.688;7.842;2023-05-23T04:58:42;13.60;;;8.48;;
78752;SDS011;68072;51.688;7.842;2023-05-23T05:01:11;15.55;;;9.50;;
78752;SDS011;68072;51.688;7.842;2023-05-23T05:03:39;16.83;;;8.77;;
78752;SDS011;68072;51.688;7.842;2023-05-23T05:06:06;13.05;;;8.32;;
78752;SDS011;68072;51.688;7.842;2023-05-23T05:08:32;14.65;;;8.07;;
78752;SDS011;68072;51.688;7.842;2023-05-23T05:11:00;15.27;;;8.40;;
78752;SDS011;68072;51.688;7.842;2023-05-23T05:13:27;12.82;;;8.35;;
78752;SDS011;68072;51.688;7.842;2023-05-23T05:15:52;17.27;;;8.93;;
78752;SDS011;68072;51.688;7.842;2023-05-23T05:18:19;14.10;;;8.70;;
78752;SDS011;68072;51.688;7.842;2023-05-23T05:20:52;15.40;;;8.48;;
78752;SDS011;68072;51.688;7.842;2023-05-23T05:23:18;13.00;;;8.85;;
78752;SDS011;68072;51.688;7.842;2023-05-23T05:25:44;13.00;;;8.57;;
78752;SDS011;68072;51.688;7.842;2023-05-23T05:28:11;11.82;;;9.20;;
78752;SDS011;68072;51.688;7.842;2023-05-23T05:30:39;17.08;;;9.18;;
78752;SDS011;68072;51.688;7.842;2023-05-23T05:33:04;19.85;;;9.52;;
78752;SDS011;68072;51.688;7.842;2023-05-23T05:35:47;15.38;;;8.65;;
78752;SDS011;68072;51.688;7.842;2023-05-23T05:38:12;16.42;;;9.52;;
78752;SDS011;68072;51.688;7.842;2023-05-23T05:40:38;16.25;;;9.05;;
78752;SDS011;68072;51.688;7.842;2023-05-23T05:43:03;16.20;;;9.70;;
78752;SDS011;68072;51.688;7.842;2023-05-23T05:45:31;17.70;;;9.65;;
78752;SDS011;68072;51.688;7.842;2023-05-23T05:47:56;18.98;;;9.73;;
78752;SDS011;68072;51.688;7.842;2023-05-23T05:50:23;19.42;;;10.13;;
78752;SDS011;68072;51.688;7.842;2023-05-23T05:52:51;20.83;;;10.70;;
78752;SDS011;68072;51.688;7.842;2023-05-23T05:55:16;15.15;;;9.02;;
78752;SDS011;68072;51.688;7.842;2023-05-23T05:57:51;18.02;;;10.85;;
78752;SDS011;68072;51.688;7.842;2023-05-23T06:00:24;18.90;;;10.35;;
78752;SDS011;68072;51.688;7.842;2023-05-23T06:02:53;22.17;;;10.38;;
78752;SDS011;68072;51.688;7.842;2023-05-23T06:05:23;20.20;;;11.80;;
78752;SDS011;68072;51.688;7.842;2023-05-23T06:07:49;19.23;;;10.02;;
78752;SDS011;68072;51.688;7.842;2023-05-23T06:10:15;20.02;;;10.93;;
78752;SDS011;68072;51.688;7.842;2023-05-23T06:12:41;17.52;;;9.25;;
78752;SDS011;68072;51.688;7.842;2023-05-23T06:15:10;19.48;;;11.40;;
78752;SDS011;68072;51.688;7.842;2023-05-23T06:17:37;23.67;;;11.07;;
78752;SDS011;68072;51.688;7.842;2023-05-23T06:20:05;19.77;;;10.85;;
78752;SDS011;68072;51.688;7.842;2023-05-23T06:22:34;23.50;;;12.25;;
78752;SDS011;68072;51.688;7.842;2023-05-23T06:25:00;20.58;;;12.00;;
78752;SDS011;68072;51.688;7.842;2023-05-23T06:27:26;21.58;;;11.65;;
78752;SDS011;68072;51.688;7.842;2023-05-23T06:29:52;22.02;;;11.90;;
78752;SDS011;68072;51.688;7.842;2023-05-23T06:32:18;19.15;;;10.45;;
78752;SDS011;68072;51.688;7.842;2023-05-23T06:34:44;17.08;;;9.88;;
78752;SDS011;68072;51.688;7.842;2023-05-23T06:37:09;20.23;;;8.98;;
78752;SDS011;68072;51.688;7.842;2023-05-23T06:39:38;14.90;;;6.90;;
78752;SDS011;68072;51.688;7.842;2023-05-23T06:42:04;15.00;;;6.80;;
78752;SDS011;68072;51.688;7.842;2023-05-23T06:44:30;10.50;;;6.15;;
78752;SDS011;68072;51.688;7.842;2023-05-23T06:46:57;10.05;;;6.32;;
78752;SDS011;68072;51.688;7.842;2023-05-23T06:49:23;9.48;;;5.18;;
78752;SDS011;68072;51.688;7.842;2023-05-23T06:51:50;10.43;;;5.50;;
78752;SDS011;68072;51.688;7.842;2023-05-23T06:54:16;8.00;;;5.47;;
78752;SDS011;68072;51.688;7.842;2023-05-23T06:56:43;9.57;;;5.65;;
78752;SDS011;68072;51.688;7.842;2023-05-23T06:59:09;9.20;;;5.47;;
78752;SDS011;68072;51.688;7.842;2023-05-23T07:01:35;10.52;;;5.57;;
78752;SDS011;68072;51.688;7.842;2023-05-23T07:04:00;14.00;;;5.50;;
78752;SDS011;68072;51.688;7.842;2023-05-23T07:06:26;7.38;;;4.72;;
78752;SDS011;68072;51.688;7.842;2023-05-23T07:08:52;7.32;;;4.13;;
78752;SDS011;68072;51.688;7.842;2023-05-23T07:13:46;5.35;;;3.42;;
78752;SDS011;68072;51.688;7.842;2023-05-23T07:16:12;9.82;;;3.60;;
78752;SDS011;68072;51.688;7.842;2023-05-23T07:18:38;3.20;;;2.53;;
78752;SDS011;68072;51.688;7.842;2023-05-23T07:21:04;3.20;;;2.90;;
78752;SDS011;68072;51.688;7.842;2023-05-23T07:23:33;4.22;;;2.80;;
78752;SDS011;68072;51.688;7.842;2023-05-23T07:26:00;5.38;;;3.22;;
78752;SDS011;68072;51.688;7.842;2023-05-23T07:28:26;4.35;;;3.08;;
78752;SDS011;68072;51.688;7.842;2023-05-23T07:30:52;6.13;;;2.85;;
78752;SDS011;68072;51.688;7.842;2023-05-23T07:35:44;4.03;;;2.70;;
78752;SDS011;68072;51.688;7.842;2023-05-23T07:38:11;5.72;;;3.70;;
78752;SDS011;68072;51.688;7.842;2023-05-23T07:40:37;3.72;;;2.75;;
78752;SDS011;68072;51.688;7.842;2023-05-23T07:43:04;4.28;;;3.20;;
78752;SDS011;68072;51.688;7.842;2023-05-23T07:45:29;5.90;;;3.08;;
78752;SDS011;68072;51.688;7.842;2023-05-23T07:47:55;5.03;;;3.55;;
78752;SDS011;68072;51.688;7.842;2023-05-23T07:50:20;6.63;;;3.38;;
78752;SDS011;68072;51.688;7.842;2023-05-23T07:52:46;4.85;;;3.35;;
78752;SDS011;68072;51.688;7.842;2023-05-23T07:55:14;5.18;;;3.45;;
78752;SDS011;68072;51.688;7.842;2023-05-23T07:57:40;5.57;;;3.35;;
78752;SDS011;68072;51.688;7.842;2023-05-23T08:00:05;7.60;;;3.40;;
78752;SDS011;68072;51.688;7.842;2023-05-23T08:02:31;6.65;;;3.35;;
78752;SDS011;68072;51.688;7.842;2023-05-23T08:04:58;6.05;;;3.63;;
78752;SDS011;68072;51.688;7.842;2023-05-23T08:07:24;7.88;;;3.55;;
78752;SDS011;68072;51.688;7.842;2023-05-23T08:09:50;6.00;;;3.70;;
78752;SDS011;68072;51.688;7.842;2023-05-23T08:12:33;6.30;;;4.00;;
78752;SDS011;68072;51.688;7.842;2023-05-23T08:20:12;6.18;;;4.00;;
78752;SDS011;68072;51.688;7.842;2023-05-23T08:22:44;6.57;;;3.58;;
78752;SDS011;68072;51.688;7.842;2023-05-23T08:25:14;7.25;;;3.78;;
78752;SDS011;68072;51.688;7.842;2023-05-23T08:27:40;5.60;;;4.00;;
78752;SDS011;68072;51.688;7.842;2023-05-23T08:30:09;6.03;;;3.90;;
78752;SDS011;68072;51.688;7.842;2023-05-23T08:32:35;6.85;;;4.13;;
78752;SDS011;68072;51.688;7.842;2023-05-23T08:35:00;5.97;;;3.92;;
78752;SDS011;68072;51.688;7.842;2023-05-23T08:37:56;8.50;;;4.32;;
78752;SDS011;68072;51.688;7.842;2023-05-23T08:42:56;6.80;;;4.15;;
78752;SDS011;68072;51.688;7.842;2023-05-23T08:48:31;7.10;;;4.97;;
78752;SDS011;68072;51.688;7.842;2023-05-23T08:50:59;7.60;;;4.38;;
78752;SDS011;68072;51.688;7.842;2023-05-23T08:53:26;6.40;;;4.88;;
78752;SDS011;68072;51.688;7.842;2023-05-23T08:56:01;12.35;;;4.75;;
78752;SDS011;68072;51.688;7.842;2023-05-23T08:58:30;7.57;;;4.60;;
78752;SDS011;68072;51.688;7.842;2023-05-23T09:03:23;6.18;;;4.32;;
78752;SDS011;68072;51.688;7.842;2023-05-23T09:05:51;10.07;;;4.72;;
78752;SDS011;68072;51.688;7.842;2023-05-23T09:08:18;7.35;;;4.53;;
78752;SDS011;68072;51.688;7.842;2023-05-23T09:10:50;9.55;;;4.85;;
78752;SDS011;68072;51.688;7.842;2023-05-23T09:13:17;4.93;;;4.38;;
78752;SDS011;68072;51.688;7.842;2023-05-23T09:16:01;11.63;;;5.10;;
78752;SDS011;68072;51.688;7.842;2023-05-23T09:18:39;8.13;;;4.95;;
78752;SDS011;68072;51.688;7.842;2023-05-23T09:21:14;8.07;;;5.20;;
78752;SDS011;68072;51.688;7.842;2023-05-23T09:23:40;12.15;;;5.32;;
78752;SDS011;68072;51.688;7.842;2023-05-23T09:26:06;8.13;;;4.90;;
78752;SDS011;68072;51.688;7.842;2023-05-23T09:28:35;7.55;;;4.32;;
78752;SDS011;68072;51.688;7.842;2023-05-23T09:31:05;7.35;;;4.53;;
78752;SDS011;68072;51.688;7.842;2023-05-23T09:33:38;7.78;;;4.28;;
78752;SDS011;68072;51.688;7.842;2023-05-23T09:36:11;10.82;;;5.10;;
78752;SDS011;68072;51.688;7.842;2023-05-23T09:38:37;8.43;;;4.60;;
78752;SDS011;68072;51.688;7.842;2023-05-23T09:41:03;8.77;;;4.90;;
78752;SDS011;68072;51.688;7.842;2023-05-23T09:43:30;9.15;;;5.40;;
78752;SDS011;68072;51.688;7.842;2023-05-23T09:46:00;8.13;;;4.88;;
78752;SDS011;68072;51.688;7.842;2023-05-23T09:48:31;10.00;;;4.88;;
78752;SDS011;68072;51.688;7.842;2023-05-23T09:50:58;7.82;;;4.72;;
78752;SDS011;68072;51.688;7.842;2023-05-23T09:53:35;16.23;;;5.22;;
78752;SDS011;68072;51.688;7.842;2023-05-23T09:56:02;11.40;;;5.85;;
78752;SDS011;68072;51.688;7.842;2023-05-23T10:00:56;13.10;;;5.97;;
78752;SDS011;68072;51.688;7.842;2023-05-23T10:03:31;8.98;;;5.47;;
78752;SDS011;68072;51.688;7.842;2023-05-23T10:05:59;14.50;;;5.82;;
78752;SDS011;68072;51.688;7.842;2023-05-23T10:08:35;9.52;;;5.43;;
78752;SDS011;68072;51.688;7.842;2023-05-23T10:13:41;11.48;;;6.03;;
78752;SDS011;68072;51.688;7.842;2023-05-23T10:18:57;12.18;;;5.97;;
78752;SDS011;68072;51.688;7.842;2023-05-23T10:21:29;10.02;;;5.78;;
78752;SDS011;68072;51.688;7.842;2023-05-23T10:24:00;10.45;;;5.15;;
78752;SDS011;68072;51.688;7.842;2023-05-23T10:26:31;9.10;;;5.13;;
78752;SDS011;68072;51.688;7.842;2023-05-23T10:28:58;10.55;;;4.57;;
78752;SDS011;68072;51.688;7.842;2023-05-23T10:31:25;14.98;;;4.50;;
78752;SDS011;68072;51.688;7.842;2023-05-23T10:33:53;9.60;;;4.20;;
78752;SDS011;68072;51.688;7.842;2023-05-23T10:36:36;7.95;;;4.13;;
78752;SDS011;68072;51.688;7.842;2023-05-23T10:39:39;7.72;;;3.75;;
78752;SDS011;68072;51.688;7.842;2023-05-23T10:42:12;7.15;;;4.03;;
78752;SDS011;68072;51.688;7.842;2023-05-23T10:44:41;10.98;;;4.20;;
78752;SDS011;68072;51.688;7.842;2023-05-23T10:47:07;9.75;;;3.60;;
78752;SDS011;68072;51.688;7.842;2023-05-23T10:49:39;9.25;;;4.13;;
78752;SDS011;68072;51.688;7.842;2023-05-23T10:52:07;10.43;;;3.63;;
78752;SDS011;68072;51.688;7.842;2023-05-23T10:54:54;10.30;;;3.72;;
78752;SDS011;68072;51.688;7.842;2023-05-23T10:57:24;9.77;;;3.78;;
78752;SDS011;68072;51.688;7.842;2023-05-23T10:59:53;10.75;;;3.40;;
78752;SDS011;68072;51.688;7.842;2023-05-23T11:02:19;10.52;;;3.30;;
78752;SDS011;68072;51.688;7.842;2023-05-23T11:08:09;8.82;;;3.50;;
78752;SDS011;68072;51.688;7.842;2023-05-23T11:10:54;7.20;;;4.18;;
78752;SDS011;68072;51.688;7.842;2023-05-23T11:13:23;9.63;;;3.05;;
78752;SDS011;68072;51.688;7.842;2023-05-23T11:15:50;9.60;;;3.95;;
78752;SDS011;68072;51.688;7.842;2023-05-23T11:18:20;10.13;;;3.55;;
78752;SDS011;68072;51.688;7.842;2023-05-23T11:20:53;6.32;;;2.95;;
78752;SDS011;68072;51.688;7.842;2023-05-23T11:23:20;8.35;;;3.70;;
78752;SDS011;68072;51.688;7.842;2023-05-23T11:25:49;7.35;;;4.00;;
78752;SDS011;68072;51.688;7.842;2023-05-23T11:28:17;19.80;;;3.90;;
78752;SDS011;68072;51.688;7.842;2023-05-23T11:30:45;9.02;;;3.00;;
78752;SDS011;68072;51.688;7.842;2023-05-23T11:33:13;11.90;;;3.20;;
78752;SDS011;68072;51.688;7.842;2023-05-23T11:36:00;8.07;;;3.53;;
78752;SDS011;68072;51.688;7.842;2023-05-23T11:38:25;5.90;;;3.25;;
78752;SDS011;68072;51.688;7.842;2023-05-23T11:40:51;8.40;;;2.92;;
78752;SDS011;68072;51.688;7.842;2023-05-23T11:43:19;6.05;;;2.90;;
78752;SDS011;68072;51.688;7.842;2023-05-23T11:45:44;8.48;;;3.25;;
78752;SDS011;68072;51.688;7.842;2023-05-23T11:48:11;10.00;;;3.30;;
78752;SDS011;68072;51.688;7.842;2023-05-23T11:50:47;9.57;;;2.92;;
78752;SDS011;68072;51.688;7.842;2023-05-23T11:53:14;13.52;;;3.25;;
78752;SDS011;68072;51.688;7.842;2023-05-23T11:55:53;12.50;;;3.63;;
78752;SDS011;68072;51.688;7.842;2023-05-23T11:58:20;12.77;;;3.63;;
78752;SDS011;68072;51.688;7.842;2023-05-23T12:00:47;10.60;;;3.45;;
78752;SDS011;68072;51.688;7.842;2023-05-23T12:03:13;10.02;;;3.45;;
78752;SDS011;68072;51.688;7.842;2023-05-23T12:05:41;8.00;;;3.50;;
78752;SDS011;68072;51.688;7.842;2023-05-23T12:08:07;10.57;;;3.28;;
78752;SDS011;68072;51.688;7.842;2023-05-23T12:10:35;10.90;;;3.60;;
78752;SDS011;68072;51.688;7.842;2023-05-23T12:13:01;6.60;;;3.00;;
78752;SDS011;68072;51.688;7.842;2023-05-23T12:15:26;8.63;;;2.88;;
78752;SDS011;68072;51.688;7.842;2023-05-23T12:17:52;12.95;;;2.95;;
78752;SDS011;68072;51.688;7.842;2023-05-23T12:20:19;9.30;;;2.85;;
78752;SDS011;68072;51.688;7.842;2023-05-23T12:22:45;9.35;;;2.95;;
78752;SDS011;68072;51.688;7.842;2023-05-23T12:25:10;8.60;;;3.40;;
78752;SDS011;68072;51.688;7.842;2023-05-23T12:27:38;8.95;;;3.00;;
78752;SDS011;68072;51.688;7.842;2023-05-23T12:32:40;9.15;;;3.15;;
78752;SDS011;68072;51.688;7.842;2023-05-23T12:35:07;9.57;;;3.05;;
78752;SDS011;68072;51.688;7.842;2023-05-23T12:37:37;10.98;;;3.08;;
78752;SDS011;68072;51.688;7.842;2023-05-23T12:42:51;6.00;;;2.55;;
78752;SDS011;68072;51.688;7.842;2023-05-23T12:48:03;6.70;;;2.67;;
78752;SDS011;68072;51.688;7.842;2023-05-23T12:50:32;6.15;;;2.80;;
78752;SDS011;68072;51.688;7.842;2023-05-23T12:52:58;11.73;;;3.63;;
78752;SDS011;68072;51.688;7.842;2023-05-23T12:55:24;5.20;;;3.00;;
78752;SDS011;68072;51.688;7.842;2023-05-23T12:57:49;10.02;;;2.95;;
78752;SDS011;68072;51.688;7.842;2023-05-23T13:00:15;13.45;;;3.13;;
78752;SDS011;68072;51.688;7.842;2023-05-23T13:02:41;6.53;;;3.25;;
78752;SDS011;68072;51.688;7.842;2023-05-23T13:05:06;11.57;;;4.07;;
78752;SDS011;68072;51.688;7.842;2023-05-23T13:09:57;9.73;;;2.97;;
78752;SDS011;68072;51.688;7.842;2023-05-23T13:12:23;9.52;;;2.78;;
78752;SDS011;68072;51.688;7.842;2023-05-23T13:14:50;11.48;;;2.80;;
78752;SDS011;68072;51.688;7.842;2023-05-23T13:17:16;12.45;;;3.63;;
78752;SDS011;68072;51.688;7.842;2023-05-23T13:19:41;13.10;;;3.22;;
78752;SDS011;68072;51.688;7.842;2023-05-23T13:22:07;12.15;;;3.05;;
78752;SDS011;68072;51.688;7.842;2023-05-23T13:24:39;8.02;;;2.97;;
78752;SDS011;68072;51.688;7.842;2023-05-23T13:27:05;9.90;;;2.92;;
78752;SDS011;68072;51.688;7.842;2023-05-23T13:29:31;9.20;;;2.92;;
78752;SDS011;68072;51.688;7.842;2023-05-23T13:34:23;11.90;;;3.42;;
78752;SDS011;68072;51.688;7.842;2023-05-23T13:39:14;9.87;;;2.43;;
78752;SDS011;68072;51.688;7.842;2023-05-23T13:41:40;15.60;;;3.20;;
78752;SDS011;68072;51.688;7.842;2023-05-23T13:44:06;9.82;;;2.55;;
78752;SDS011;68072;51.688;7.842;2023-05-23T13:46:31;7.05;;;2.47;;
78752;SDS011;68072;51.688;7.842;2023-05-23T13:48:56;7.47;;;2.83;;
78752;SDS011;68072;51.688;7.842;2023-05-23T13:51:22;13.07;;;3.65;;
78752;SDS011;68072;51.688;7.842;2023-05-23T13:53:47;10.05;;;2.80;;
78752;SDS011;68072;51.688;7.842;2023-05-23T13:56:13;6.95;;;2.65;;
78752;SDS011;68072;51.688;7.842;2023-05-23T13:58:39;7.68;;;2.78;;
78752;SDS011;68072;51.688;7.842;2023-05-23T14:01:04;11.57;;;3.22;;
78752;SDS011;68072;51.688;7.842;2023-05-23T14:03:30;7.45;;;2.88;;
78752;SDS011;68072;51.688;7.842;2023-05-23T14:05:55;6.70;;;2.83;;
78752;SDS011;68072;51.688;7.842;2023-05-23T14:08:20;8.20;;;2.88;;
78752;SDS011;68072;51.688;7.842;2023-05-23T14:13:45;10.35;;;3.20;;
78752;SDS011;68072;51.688;7.842;2023-05-23T14:16:12;11.93;;;3.10;;
78752;SDS011;68072;51.688;7.842;2023-05-23T14:18:41;8.82;;;3.15;;
78752;SDS011;68072;51.688;7.842;2023-05-23T14:21:06;9.02;;;2.70;;
78752;SDS011;68072;51.688;7.842;2023-05-23T14:23:32;4.78;;;2.17;;
78752;SDS011;68072;51.688;7.842;2023-05-23T14:25:59;12.05;;;3.25;;
78752;SDS011;68072;51.688;7.842;2023-05-23T14:28:25;14.55;;;2.72;;
78752;SDS011;68072;51.688;7.842;2023-05-23T14:30:51;9.50;;;2.88;;
78752;SDS011;68072;51.688;7.842;2023-05-23T14:33:18;10.35;;;2.70;;
78752;SDS011;68072;51.688;7.842;2023-05-23T14:35:45;7.50;;;2.70;;
78752;SDS011;68072;51.688;7.842;2023-05-23T14:38:11;7.15;;;2.47;;
78752;SDS011;68072;51.688;7.842;2023-05-23T14:40:38;9.48;;;3.15;;
78752;SDS011;68072;51.688;7.842;2023-05-23T14:43:03;8.52;;;2.45;;
78752;SDS011;68072;51.688;7.842;2023-05-23T14:45:30;7.57;;;2.50;;
78752;SDS011;68072;51.688;7.842;2023-05-23T14:48:01;11.60;;;2.60;;
78752;SDS011;68072;51.688;7.842;2023-05-23T14:50:26;6.70;;;2.08;;
78752;SDS011;68072;51.688;7.842;2023-05-23T14:52:52;5.93;;;2.60;;
78752;SDS011;68072;51.688;7.842;2023-05-23T14:57:43;7.33;;;2.50;;
78752;SDS011;68072;51.688;7.842;2023-05-23T15:00:09;7.72;;;2.83;;
78752;SDS011;68072;51.688;7.842;2023-05-23T15:02:35;17.48;;;2.97;;
78752;SDS011;68072;51.688;7.842;2023-05-23T15:05:02;9.68;;;2.75;;
78752;SDS011;68072;51.688;7.842;2023-05-23T15:07:29;11.32;;;2.75;;
78752;SDS011;68072;51.688;7.842;2023-05-23T15:09:55;7.10;;;2.63;;
78752;SDS011;68072;51.688;7.842;2023-05-23T15:12:23;6.85;;;2.72;;
78752;SDS011;68072;51.688;7.842;2023-05-23T15:14:48;9.43;;;2.45;;
78752;SDS011;68072;51.688;7.842;2023-05-23T15:17:13;11.73;;;3.13;;
78752;SDS011;68072;51.688;7.842;2023-05-23T15:19:44;8.27;;;2.55;;
78752;SDS011;68072;51.688;7.842;2023-05-23T15:22:10;10.95;;;2.75;;
78752;SDS011;68072;51.688;7.842;2023-05-23T15:24:36;6.43;;;2.50;;
78752;SDS011;68072;51.688;7.842;2023-05-23T15:27:02;9.00;;;2.88;;
78752;SDS011;68072;51.688;7.842;2023-05-23T15:29:28;8.48;;;2.50;;
78752;SDS011;68072;51.688;7.842;2023-05-23T15:31:53;8.57;;;2.70;;
78752;SDS011;68072;51.688;7.842;2023-05-23T15:34:27;11.45;;;3.20;;
78752;SDS011;68072;51.688;7.842;2023-05-23T15:37:53;7.78;;;2.47;;
78752;SDS011;68072;51.688;7.842;2023-05-23T15:40:19;5.97;;;2.25;;
78752;SDS011;68072;51.688;7.842;2023-05-23T15:45:11;5.00;;;2.17;;
78752;SDS011;68072;51.688;7.842;2023-05-23T15:47:36;7.43;;;2.30;;